Time;durP1;ratioP1;P1;durP2;ratioP2;P2;SDS_P1;SDS_P2;PMS_P1;PMS_P2;Temp;Humidity;BMP_temperature;BMP_pressure;BME280_temperature;BME280_humidity;BME280_pressure;Samples;Min_cycle;Max_cycle;Signal;HPM_P1;HPM_P2
2022/06/04 00:00:53;;;;;;;1.72;1.62;;;;;;;16.87;59.90;99738.59;1759872;80;21038;-71
2022/06/04 00:03:20;;;;;;;2.52;2.00;;;;;;;16.86;59.97;99734.27;1760174;80;20951;-69
2022/06/04 00:05:50;;;;;;;2.17;2.05;;;;;;;16.86;60.02;99738.80;1759633;80;21651;-69
2022/06/04 00:08:18;;;;;;;11.68;2.33;;;;;;;16.83;60.14;99741.89;1768296;78;21482;-69
2022/06/04 00:16:23;;;;;;;2.10;2.00;;;;;;;16.79;60.28;99732.06;1781819;80;20915;-69
2022/06/04 00:18:50;;;;;;;2.20;2.10;;;;;;;16.77;60.41;99730.61;1775288;79;21205;-70
2022/06/04 00:21:16;;;;;;;3.22;2.25;;;;;;;16.77;60.50;99727.41;1759734;80;21017;-70
2022/06/04 00:23:44;;;;;;;1.90;1.80;;;;;;;16.77;60.50;99726.07;1759740;80;20867;-70
2022/06/04 00:26:13;;;;;;;2.05;1.92;;;;;;;16.79;60.46;99731.25;1763611;80;20879;-70
2022/06/04 00:28:40;;;;;;;1.77;1.67;;;;;;;16.81;60.45;99725.99;1766454;80;21035;-70
2022/06/04 00:31:07;;;;;;;2.00;1.90;;;;;;;16.82;60.44;99724.11;1759742;80;21132;-69
2022/06/04 00:33:34;;;;;;;2.02;1.90;;;;;;;16.84;60.42;99726.09;1759737;80;20868;-70
2022/06/04 00:36:01;;;;;;;1.80;1.70;;;;;;;16.85;60.36;99724.53;1781766;80;20991;-71
2022/06/04 00:38:30;;;;;;;1.98;1.85;;;;;;;16.86;60.29;99720.83;1776412;79;20976;-69
2022/06/04 00:41:25;;;;;;;2.30;2.15;;;;;;;16.86;60.28;99715.45;1759711;80;20997;-69
2022/06/04 00:44:19;;;;;;;2.02;1.92;;;;;;;16.87;60.35;99716.29;1787126;80;21921;-70
2022/06/04 00:47:22;;;;;;;2.20;2.10;;;;;;;16.84;60.42;99721.52;1777322;79;20906;-68
2022/06/04 00:49:49;;;;;;;2.12;2.02;;;;;;;16.86;60.43;99715.97;1760327;80;20979;-69
2022/06/04 00:52:16;;;;;;;2.00;1.82;;;;;;;16.84;60.48;99720.18;1769041;79;20986;-73
2022/06/04 00:54:44;;;;;;;2.00;1.90;;;;;;;16.84;60.41;99716.15;1759674;80;20891;-72
2022/06/04 00:57:25;;;;;;;1.72;1.62;;;;;;;16.83;60.35;99712.34;1762860;80;21191;-76
2022/06/04 01:00:15;;;;;;;2.10;1.80;;;;;;;16.81;60.28;99713.06;1780762;80;20911;-71
2022/06/04 01:02:46;;;;;;;1.82;1.72;;;;;;;16.77;60.25;99708.61;1773040;80;21003;-69
2022/06/04 01:05:43;;;;;;;1.80;1.70;;;;;;;16.76;60.26;99711.00;1787978;79;20840;-72
2022/06/04 01:08:15;;;;;;;1.72;1.57;;;;;;;16.73;60.31;99711.41;1754784;80;20907;-71
2022/06/04 01:11:16;;;;;;;1.80;1.70;;;;;;;16.70;60.30;99715.00;1753230;80;21871;-68
2022/06/04 01:14:08;;;;;;;1.62;1.52;;;;;;;16.68;60.29;99715.22;1763601;81;20864;-72
2022/06/04 01:17:08;;;;;;;1.77;1.67;;;;;;;16.66;60.41;99710.55;1765553;79;20912;-69
2022/06/04 01:20:03;;;;;;;4.00;1.75;;;;;;;16.65;60.49;99703.53;1706379;81;20963;-71
2022/06/04 01:23:06;;;;;;;1.90;1.80;;;;;;;16.62;60.47;99703.94;1772934;80;20926;-73
2022/06/04 01:26:11;;;;;;;2.47;1.70;;;;;;;16.59;60.54;99711.05;1743808;81;21540;-70
2022/06/04 01:28:43;;;;;;;1.90;1.80;;;;;;;16.56;60.57;99700.71;1765524;81;20920;-71
2022/06/04 01:31:11;;;;;;;2.08;1.60;;;;;;;16.52;60.58;99704.34;1738526;81;20976;-71
2022/06/04 01:33:41;;;;;;;1.50;1.40;;;;;;;16.52;60.56;99699.45;1750873;81;20895;-70
2022/06/04 01:36:17;;;;;;;1.57;1.47;;;;;;;16.51;60.47;99697.78;1744619;81;20884;-73
2022/06/04 01:38:48;;;;;;;2.25;1.67;;;;;;;16.51;60.42;99691.06;1746804;81;21259;-74
2022/06/04 01:41:24;;;;;;;1.90;1.65;;;;;;;16.50;60.46;99692.91;1746428;81;21026;-71
2022/06/04 01:43:57;;;;;;;2.08;1.50;;;;;;;16.50;60.50;99682.72;1754560;81;20931;-68
2022/06/04 01:46:41;;;;;;;1.60;1.50;;;;;;;16.50;60.56;99686.20;1743786;81;21000;-74
2022/06/04 01:49:15;;;;;;;1.72;1.62;;;;;;;16.50;60.60;99683.52;1746947;81;21004;-73
2022/06/04 01:51:43;;;;;;;1.95;1.85;;;;;;;16.49;60.55;99682.39;1745033;81;21102;-71
2022/06/04 01:54:18;;;;;;;1.95;1.70;;;;;;;16.48;60.64;99683.41;1743642;81;20923;-70
2022/06/04 01:56:49;;;;;;;1.60;1.50;;;;;;;16.45;60.72;99680.61;1743665;81;21054;-71
2022/06/04 01:59:33;;;;;;;1.85;1.62;;;;;;;16.45;60.70;99683.30;1749559;81;21034;-71
2022/06/04 02:02:00;;;;;;;1.57;1.47;;;;;;;16.43;60.66;99680.51;1746740;81;21018;-70
2022/06/04 02:04:30;;;;;;;1.60;1.50;;;;;;;16.41;60.62;99675.86;1771478;81;21960;-72
2022/06/04 02:10:08;;;;;;;2.83;1.72;;;;;;;16.44;60.57;99683.01;1756081;81;20955;-71
2022/06/04 02:12:35;;;;;;;1.70;1.60;;;;;;;16.45;60.56;99689.21;1744298;81;20883;-71
2022/06/04 02:15:07;;;;;;;1.60;1.50;;;;;;;16.46;60.50;99683.63;1743607;81;20987;-73
2022/06/04 02:17:37;;;;;;;1.80;1.70;;;;;;;16.48;60.51;99690.13;1743542;81;21268;-69
2022/06/04 02:20:06;;;;;;;1.62;1.35;;;;;;;16.48;60.49;99692.80;1748140;81;21379;-73
2022/06/04 02:22:34;;;;;;;1.60;1.50;;;;;;;16.48;60.41;99694.98;1752519;81;20876;-71
2022/06/04 02:25:03;;;;;;;2.30;1.45;;;;;;;16.48;60.28;99693.64;1771879;81;21490;-70
2022/06/04 02:27:31;;;;;;;1.67;1.57;;;;;;;16.51;60.16;99699.13;1773011;81;21384;-71
2022/06/04 02:29:57;;;;;;;1.80;1.50;;;;;;;16.48;60.16;99693.64;1771401;81;21142;-69
2022/06/04 02:32:42;;;;;;;1.55;1.45;;;;;;;16.46;60.17;99687.66;1751666;81;20876;-70
2022/06/04 02:35:14;;;;;;;1.52;1.42;;;;;;;16.46;60.10;99693.02;1764947;81;20943;-69
2022/06/04 02:37:56;;;;;;;1.35;1.30;;;;;;;16.50;59.98;99694.80;1773228;80;20880;-69
2022/06/04 02:40:31;;;;;;;1.67;1.57;;;;;;;16.52;59.87;99694.94;1771031;79;20912;-69
2022/06/04 02:43:11;;;;;;;2.20;1.62;;;;;;;16.60;59.70;99692.58;1743744;80;20963;-69
2022/06/04 02:45:42;;;;;;;1.50;1.40;;;;;;;16.63;59.65;99702.92;1750002;81;21487;-70
2022/06/04 02:48:19;;;;;;;1.50;1.40;;;;;;;16.65;59.56;99692.28;1763486;81;20971;-69
2022/06/04 02:50:58;;;;;;;1.72;1.62;;;;;;;16.72;59.44;99697.65;1772467;81;20935;-69
2022/06/04 02:53:26;;;;;;;1.32;1.22;;;;;;;16.77;59.31;99693.83;1741977;81;20840;-69
2022/06/04 02:56:07;;;;;;;3.50;1.57;;;;;;;16.81;59.29;99695.61;1741809;81;21114;-70
2022/06/04 02:58:34;;;;;;;1.50;1.40;;;;;;;16.86;59.24;99697.16;1743571;81;21449;-69
2022/06/04 03:01:00;;;;;;;1.87;1.70;;;;;;;16.93;59.14;99696.64;1747435;81;20966;-69
2022/06/04 03:03:27;;;;;;;2.40;1.55;;;;;;;17.02;58.92;99694.08;1746303;81;20978;-69
2022/06/04 03:05:57;;;;;;;5.25;1.80;;;;;;;17.08;58.70;99691.88;1757292;81;21399;-69
2022/06/04 03:08:28;;;;;;;2.17;1.87;;;;;;;17.15;58.59;99691.39;1746921;81;21245;-70
2022/06/04 03:10:57;;;;;;;1.50;1.40;;;;;;;17.23;58.53;99693.33;1750201;80;21005;-69
2022/06/04 03:13:23;;;;;;;2.30;1.52;;;;;;;17.35;58.33;99695.39;1761885;80;20891;-68
2022/06/04 03:15:50;;;;;;;1.62;1.52;;;;;;;17.51;58.07;99693.62;1759730;80;20938;-69
2022/06/04 03:18:17;;;;;;;2.47;1.72;;;;;;;17.70;57.65;99688.76;1759860;80;20977;-69
2022/06/04 03:20:46;;;;;;;1.90;1.70;;;;;;;17.86;57.33;99684.23;1776417;80;21390;-69
2022/06/04 03:23:12;;;;;;;3.00;1.87;;;;;;;18.00;57.06;99687.20;1761658;80;20843;-69
2022/06/04 03:25:39;;;;;;;1.72;1.62;;;;;;;18.14;56.75;99687.47;1759752;80;21103;-69
2022/06/04 03:28:08;;;;;;;2.58;1.67;;;;;;;18.31;56.50;99692.66;1759851;80;20966;-70
2022/06/04 03:30:35;;;;;;;6.25;1.75;;;;;;;18.47;56.12;99684.11;1759771;80;21421;-69
2022/06/04 03:33:03;;;;;;;1.98;1.60;;;;;;;18.66;55.71;99689.59;1769311;80;21976;-70
2022/06/04 03:35:29;;;;;;;1.98;1.87;;;;;;;18.86;55.32;99683.02;1759667;80;20975;-69
2022/06/04 03:37:56;;;;;;;1.70;1.60;;;;;;;19.20;54.61;99685.75;1759840;80;21259;-69
2022/06/04 03:40:23;;;;;;;2.67;1.90;;;;;;;19.48;53.82;99678.56;1759792;80;20986;-68
2022/06/04 03:42:49;;;;;;;1.98;1.85;;;;;;;19.70;53.11;99673.05;1769585;80;20965;-69
2022/06/04 03:45:17;;;;;;;1.70;1.60;;;;;;;19.88;52.57;99665.47;1759718;80;21519;-69
2022/06/04 03:47:45;;;;;;;2.22;1.90;;;;;;;20.04;52.02;99662.17;1759651;80;20911;-68
2022/06/04 03:50:15;;;;;;;1.65;1.55;;;;;;;20.26;51.66;99656.59;1759808;80;20887;-68
2022/06/04 03:52:44;;;;;;;1.62;1.52;;;;;;;20.47;51.02;99658.80;1767280;80;20947;-69
2022/06/04 03:55:11;;;;;;;2.10;1.75;;;;;;;20.58;50.61;99664.77;1759366;80;20935;-69
2022/06/04 03:57:41;;;;;;;1.80;1.70;;;;;;;20.68;50.41;99656.92;1759707;80;21140;-69
2022/06/04 04:00:14;;;;;;;1.80;1.70;;;;;;;20.90;50.05;99655.34;1759672;80;21508;-68
2022/06/04 04:02:42;;;;;;;1.90;1.80;;;;;;;21.06;49.50;99649.81;1764180;80;20919;-70
2022/06/04 04:05:10;;;;;;;2.27;1.52;;;;;;;21.17;49.21;99648.98;1759610;80;20930;-69
2022/06/04 04:07:37;;;;;;;4.12;1.92;;;;;;;21.35;48.75;99658.89;1759825;80;20938;-68
2022/06/04 04:10:05;;;;;;;1.70;1.60;;;;;;;21.40;48.28;99652.23;1759733;80;21141;-69
2022/06/04 04:12:32;;;;;;;2.08;1.85;;;;;;;21.55;48.07;99649.86;1763072;79;20871;-69
2022/06/04 04:14:58;;;;;;;1.80;1.70;;;;;;;21.77;47.53;99653.58;1757297;80;20962;-71
2022/06/04 04:17:26;;;;;;;1.55;1.45;;;;;;;22.03;46.91;99652.28;1766369;80;20975;-73
2022/06/04 04:19:52;;;;;;;9.20;1.82;;;;;;;22.42;46.33;99653.31;1787205;80;20994;-68
2022/06/04 04:22:19;;;;;;;2.87;1.52;;;;;;;23.09;45.01;99646.92;1784832;80;21242;-70
2022/06/04 04:24:46;;;;;;;1.50;1.40;;;;;;;23.77;43.35;99648.48;1787089;80;21523;-72
2022/06/04 04:27:12;;;;;;;1.42;1.30;;;;;;;24.23;42.20;99655.32;1787356;80;20914;-69
2022/06/04 04:29:39;;;;;;;1.60;1.50;;;;;;;24.67;41.54;99651.44;1787107;79;20970;-72
2022/06/04 04:32:07;;;;;;;1.27;1.20;;;;;;;25.27;41.11;99650.33;1769527;80;21488;-71
2022/06/04 04:34:35;;;;;;;1.30;1.20;;;;;;;26.12;39.61;99642.70;1757310;80;21934;-71
2022/06/04 04:37:03;;;;;;;1.72;1.55;;;;;;;26.94;38.04;99635.77;1757346;80;21089;-70
2022/06/04 04:39:29;;;;;;;2.85;1.40;;;;;;;27.78;36.58;99641.13;1757350;80;21038;-70
2022/06/04 04:41:56;;;;;;;1.47;1.20;;;;;;;28.57;34.81;99642.41;1767696;80;20974;-71
2022/06/04 04:44:23;;;;;;;1.22;1.12;;;;;;;29.18;33.04;99640.84;1757441;80;20879;-69
2022/06/04 04:46:50;;;;;;;1.67;1.20;;;;;;;29.25;32.11;99645.46;1764672;80;21205;-72
2022/06/04 04:49:17;;;;;;;1.20;1.02;;;;;;;29.08;32.02;99642.31;1757435;80;21614;-73
2022/06/04 04:51:43;;;;;;;1.32;1.22;;;;;;;28.97;32.07;99648.15;1766081;80;20928;-71
2022/06/04 04:54:10;;;;;;;1.98;1.32;;;;;;;28.97;32.24;99642.67;1787188;80;20978;-71
2022/06/04 04:56:38;;;;;;;2.25;1.12;;;;;;;29.17;31.97;99635.67;1787134;80;21594;-70
2022/06/04 04:59:06;;;;;;;1.30;1.20;;;;;;;29.65;30.67;99633.28;1787383;79;20966;-70
2022/06/04 05:01:33;;;;;;;1.30;1.20;;;;;;;29.66;30.27;99632.73;1779836;80;21028;-72
2022/06/04 05:03:59;;;;;;;2.65;1.40;;;;;;;29.66;30.03;99629.98;1758111;80;20927;-69
2022/06/04 05:06:27;;;;;;;1.52;1.20;;;;;;;29.64;29.92;99635.77;1757243;80;21030;-69
2022/06/04 05:08:54;;;;;;;2.33;1.40;;;;;;;29.31;30.24;99633.36;1760766;80;20962;-69
2022/06/04 05:11:27;;;;;;;1.45;1.22;;;;;;;29.18;30.75;99627.16;1749638;80;21221;-69
2022/06/04 05:13:55;;;;;;;1.98;1.55;;;;;;;29.48;30.60;99625.25;1701185;81;21012;-69
2022/06/04 05:16:25;;;;;;;1.37;1.25;;;;;;;29.80;30.18;99619.41;1705579;82;21003;-69
2022/06/04 05:18:51;;;;;;;1.72;1.30;;;;;;;29.82;30.02;99623.25;1699901;83;21051;-68
2022/06/04 05:21:22;;;;;;;2.55;1.10;;;;;;;30.13;29.96;99618.19;1701501;83;20920;-70
2022/06/04 05:23:50;;;;;;;1.50;1.40;;;;;;;30.82;29.46;99616.90;1751966;80;21952;-67
2022/06/04 05:26:17;;;;;;;1.42;1.32;;;;;;;31.48;28.51;99604.80;1755632;81;21638;-66
2022/06/04 05:28:45;;;;;;;1.20;1.10;;;;;;;31.87;28.10;99605.11;1751750;81;20931;-67
2022/06/04 05:31:12;;;;;;;1.95;1.30;;;;;;;32.25;27.60;99604.34;1727082;80;21433;-67
2022/06/04 05:33:38;;;;;;;3.52;1.40;;;;;;;32.54;26.63;99608.11;1748185;81;20935;-69
2022/06/04 05:36:07;;;;;;;1.75;1.65;;;;;;;32.18;26.67;99603.92;1746268;79;21181;-69
2022/06/04 05:38:36;;;;;;;1.85;1.42;;;;;;;31.92;27.27;99595.94;1768412;79;21486;-71
2022/06/04 05:41:07;;;;;;;4.17;1.00;;;;;;;32.39;26.95;99600.97;1755749;79;20955;-70
2022/06/04 05:43:34;;;;;;;0.90;0.90;;;;;;;32.30;26.44;99600.09;1746242;79;21003;-72
2022/06/04 05:46:04;;;;;;;3.22;0.82;;;;;;;31.97;26.48;99587.02;1743368;81;20927;-70
2022/06/04 05:48:30;;;;;;;0.93;0.90;;;;;;;31.35;27.19;99591.83;1744767;81;21090;-69
2022/06/04 05:50:58;;;;;;;1.62;1.10;;;;;;;31.16;27.74;99590.52;1744361;81;21061;-73
2022/06/04 05:53:25;;;;;;;9.08;1.90;;;;;;;31.40;27.24;99580.19;1760210;81;21462;-70
2022/06/04 05:55:52;;;;;;;1.40;1.00;;;;;;;30.96;27.79;99588.14;1752952;81;21000;-70
2022/06/04 05:58:19;;;;;;;1.32;1.02;;;;;;;30.59;28.33;99593.11;1753775;81;20991;-72
2022/06/04 06:00:45;;;;;;;2.00;1.12;;;;;;;30.60;28.44;99595.31;1761861;79;21192;-76
2022/06/04 06:03:12;;;;;;;2.08;0.93;;;;;;;31.02;27.77;99591.89;1766266;80;21481;-74
2022/06/04 06:05:44;;;;;;;0.95;0.93;;;;;;;31.65;27.28;99595.41;1751836;81;20983;-68
2022/06/04 06:08:11;;;;;;;2.45;0.95;;;;;;;32.54;26.36;99581.36;1758692;79;20927;-64
2022/06/04 06:10:42;;;;;;;1.37;1.27;;;;;;;32.84;25.63;99586.14;1771082;81;20950;-62
2022/06/04 06:13:09;;;;;;;2.67;1.22;;;;;;;32.67;25.64;99588.75;1760728;79;21068;-61
2022/06/04 06:15:37;;;;;;;1.25;1.00;;;;;;;32.44;25.74;99591.21;1764171;80;20961;-64
2022/06/04 06:18:05;;;;;;;1.07;0.98;;;;;;;32.47;26.38;99591.97;1773340;80;20884;-63
2022/06/04 06:20:32;;;;;;;1.57;1.00;;;;;;;32.78;25.26;99586.01;1768628;79;20936;-73
2022/06/04 06:22:59;;;;;;;1.02;1.02;;;;;;;32.59;25.31;99588.70;1764743;80;20883;-72
2022/06/04 06:25:26;;;;;;;0.90;0.90;;;;;;;32.52;25.66;99585.00;1765958;80;21757;-74
2022/06/04 06:27:54;;;;;;;0.90;0.90;;;;;;;32.43;25.50;99599.80;1766602;80;20824;-74
2022/06/04 06:30:21;;;;;;;1.25;0.80;;;;;;;32.32;25.84;99595.08;1743465;80;20987;-74
2022/06/04 06:32:48;;;;;;;1.95;0.72;;;;;;;32.57;26.26;99586.25;1764988;78;21041;-70
2022/06/04 06:35:14;;;;;;;2.52;1.27;;;;;;;33.34;25.40;99577.69;1777700;80;21618;-74
2022/06/04 06:37:41;;;;;;;0.80;0.80;;;;;;;33.58;24.69;99594.70;1770431;80;21849;-74
2022/06/04 06:40:09;;;;;;;2.72;1.00;;;;;;;33.32;24.35;99585.48;1767984;80;20926;-74
2022/06/04 06:42:37;;;;;;;1.55;0.75;;;;;;;33.07;24.50;99588.33;1761119;80;21504;-77
2022/06/04 06:45:08;;;;;;;1.22;0.88;;;;;;;32.60;24.59;99584.81;1757429;80;21576;-75
2022/06/04 06:47:35;;;;;;;1.15;0.90;;;;;;;32.43;25.52;99577.22;1757141;80;21512;-73
2022/06/04 06:50:02;;;;;;;0.70;0.70;;;;;;;32.49;24.81;99585.58;1757400;80;21212;-75
2022/06/04 06:52:29;;;;;;;0.90;0.80;;;;;;;32.42;25.14;99585.77;1757282;80;20962;-75
2022/06/04 06:54:55;;;;;;;3.37;0.93;;;;;;;32.72;24.66;99585.08;1757672;80;21517;-73
2022/06/04 06:57:22;;;;;;;1.07;0.90;;;;;;;33.24;24.37;99568.33;1757668;80;20997;-74
2022/06/04 06:59:49;;;;;;;1.92;0.80;;;;;;;34.02;22.88;99570.23;1757377;80;20974;-77
2022/06/04 07:02:15;;;;;;;0.88;0.88;;;;;;;34.65;22.12;99560.00;1757316;80;21765;-76
2022/06/04 07:04:42;;;;;;;1.02;0.70;;;;;;;35.00;21.48;99563.49;1757100;80;20898;-74
2022/06/04 07:07:08;;;;;;;1.15;0.88;;;;;;;35.32;20.94;99556.84;1757340;80;20978;-76
2022/06/04 07:09:40;;;;;;;2.35;0.78;;;;;;;35.06;21.21;99557.51;1757280;80;21453;-75
2022/06/04 07:12:09;;;;;;;2.37;0.70;;;;;;;35.06;21.35;99566.36;1757280;80;21001;-76
2022/06/04 07:14:36;;;;;;;3.02;1.00;;;;;;;35.14;21.26;99559.44;1757233;80;21157;-76
2022/06/04 07:17:05;;;;;;;1.65;1.00;;;;;;;35.38;21.40;99556.09;1757120;80;20940;-75
2022/06/04 07:19:33;;;;;;;1.85;0.78;;;;;;;35.97;21.29;99554.73;1757275;80;20954;-76
2022/06/04 07:22:00;;;;;;;5.12;0.90;;;;;;;36.44;20.12;99563.11;1757163;80;20974;-75
2022/06/04 07:24:26;;;;;;;1.65;0.72;;;;;;;36.54;19.69;99551.64;1757536;80;20879;-74
2022/06/04 07:26:53;;;;;;;0.93;0.70;;;;;;;36.30;20.28;99553.69;1757415;80;21139;-75
2022/06/04 07:29:20;;;;;;;0.78;0.70;;;;;;;36.20;20.45;99551.91;1757332;80;20989;-75
2022/06/04 07:31:47;;;;;;;0.90;0.90;;;;;;;36.31;20.58;99558.09;1757333;80;21080;-75
2022/06/04 07:34:13;;;;;;;1.05;0.78;;;;;;;36.21;20.23;99552.15;1757218;80;21095;-75
2022/06/04 07:36:43;;;;;;;1.60;1.00;;;;;;;35.95;20.73;99564.77;1770632;80;21501;-75
2022/06/04 07:39:11;;;;;;;1.75;0.80;;;;;;;35.79;20.46;99555.42;1787512;79;21070;-75
2022/06/04 07:41:43;;;;;;;2.27;0.90;;;;;;;35.52;20.67;99539.25;1787287;79;21003;-76
2022/06/04 07:44:11;;;;;;;3.25;0.90;;;;;;;34.95;21.07;99547.09;1787309;80;21075;-75
2022/06/04 07:46:40;;;;;;;1.20;0.70;;;;;;;35.01;21.63;99541.07;1787237;80;21065;-76
2022/06/04 07:49:07;;;;;;;1.52;0.90;;;;;;;35.55;21.21;99535.86;1787338;80;20978;-75
2022/06/04 07:51:34;;;;;;;2.30;1.00;;;;;;;35.43;20.86;99529.64;1787255;80;21116;-76
2022/06/04 07:54:03;;;;;;;1.35;0.75;;;;;;;35.51;21.31;99530.73;1787113;79;21610;-75
2022/06/04 07:56:29;;;;;;;1.22;0.90;;;;;;;35.08;20.73;99526.20;1787157;80;21643;-77
2022/06/04 07:58:57;;;;;;;1.02;0.80;;;;;;;34.90;21.16;99530.69;1787366;80;21073;-76
2022/06/04 08:01:24;;;;;;;2.02;0.90;;;;;;;35.17;21.55;99517.28;1787305;80;20880;-75
2022/06/04 08:03:51;;;;;;;0.93;0.93;;;;;;;35.74;21.03;99517.69;1787259;80;21767;-76
2022/06/04 08:06:18;;;;;;;2.83;1.10;;;;;;;36.19;20.64;99510.94;1783631;80;20967;-75
2022/06/04 08:08:46;;;;;;;1.72;0.90;;;;;;;36.41;20.61;99502.85;1757324;80;20871;-74
2022/06/04 08:11:31;;;;;;;1.07;0.70;;;;;;;36.05;20.89;99507.65;1757710;80;20910;-75
2022/06/04 08:14:21;;;;;;;1.27;1.00;;;;;;;36.11;20.86;99503.51;1759039;80;21523;-75
2022/06/04 08:16:55;;;;;;;1.10;0.78;;;;;;;36.45;20.05;99499.05;1757679;80;21236;-76
2022/06/04 08:19:27;;;;;;;0.93;0.93;;;;;;;36.65;20.36;99493.28;1789804;79;21003;-76
2022/06/04 08:21:55;;;;;;;1.30;0.68;;;;;;;36.66;19.91;99495.48;1789979;79;20863;-73
2022/06/04 08:24:22;;;;;;;1.35;0.93;;;;;;;36.10;20.07;99503.29;1789637;80;20954;-76
2022/06/04 08:26:58;;;;;;;0.90;0.90;;;;;;;35.13;20.22;99494.22;1789699;79;20982;-74
2022/06/04 08:29:25;;;;;;;0.90;0.90;;;;;;;33.99;20.98;99491.66;1789678;79;21526;-75
2022/06/04 08:31:51;;;;;;;4.25;0.90;;;;;;;32.83;22.59;99501.04;1789598;79;20962;-76
2022/06/04 08:34:18;;;;;;;0.78;0.78;;;;;;;31.78;23.83;99514.25;1789761;80;21495;-76
2022/06/04 08:36:45;;;;;;;0.82;0.82;;;;;;;30.65;24.72;99506.00;1769673;80;20974;-75
2022/06/04 08:39:12;;;;;;;0.90;0.90;;;;;;;29.67;26.29;99511.02;1789740;80;20970;-74
2022/06/04 08:42:08;;;;;;;1.57;0.85;;;;;;;29.06;27.27;99518.55;1789690;80;21601;-74
2022/06/04 08:44:50;;;;;;;0.80;0.80;;;;;;;28.66;27.66;99507.98;1759080;80;20887;-74
2022/06/04 08:47:21;;;;;;;1.20;1.07;;;;;;;28.53;28.60;99515.45;1788827;79;20847;-76
2022/06/04 08:49:58;;;;;;;0.98;0.98;;;;;;;28.50;28.81;99512.74;1789629;79;21021;-76
2022/06/04 08:52:35;;;;;;;1.05;1.02;;;;;;;28.53;29.00;99506.70;1789974;80;20876;-75
2022/06/04 08:58:27;;;;;;;1.00;1.00;;;;;;;28.40;29.69;99491.48;1768689;80;21523;-74
2022/06/04 09:00:59;;;;;;;;;;;;;;;28.36;30.19;99485.79;1792389;79;20864;-74
2022/06/04 09:03:55;;;;;;;1.00;0.80;;;;;;;28.49;30.16;99490.61;1789801;80;20082;-74
2022/06/04 09:06:39;;;;;;;0.88;0.88;;;;;;;28.54;30.62;99493.30;1789673;80;21571;-77
2022/06/04 09:09:32;;;;;;;1.50;0.90;;;;;;;28.54;30.17;99482.89;1789661;80;21866;-74
2022/06/04 09:12:27;;;;;;;1.07;0.98;;;;;;;28.39;30.19;99480.30;1789796;79;20911;-76
2022/06/04 09:15:18;;;;;;;1.35;1.00;;;;;;;28.41;30.44;99480.82;1749004;79;21003;-75
2022/06/04 09:17:53;;;;;;;1.25;1.15;;;;;;;28.45;29.74;99472.30;1744249;82;20986;-75
2022/06/04 09:20:42;;;;;;;1.17;1.07;;;;;;;28.49;30.02;99474.19;1744329;82;22082;-76
2022/06/04 09:23:36;;;;;;;1.07;0.82;;;;;;;28.43;29.05;99475.33;1744345;82;21530;-73
2022/06/04 09:26:19;;;;;;;1.30;0.80;;;;;;;28.23;29.25;99467.84;1744430;82;20978;-74
2022/06/04 09:29:12;;;;;;;1.98;1.10;;;;;;;28.14;29.26;99475.83;1744408;82;20955;-77
2022/06/04 09:32:18;;;;;;;0.80;0.80;;;;;;;28.24;28.71;99466.72;1738285;82;20978;-75
2022/06/04 09:34:50;;;;;;;0.75;0.75;;;;;;;28.24;28.33;99458.52;1744348;82;20880;-76
2022/06/04 09:37:18;;;;;;;3.05;1.00;;;;;;;28.45;27.79;99462.17;1744364;82;21183;-76
2022/06/04 09:39:47;;;;;;;0.80;0.80;;;;;;;28.53;27.31;99455.25;1744190;82;20847;-75
2022/06/04 09:42:21;;;;;;;2.95;1.20;;;;;;;28.51;27.90;99443.25;1744242;82;20994;-75
2022/06/04 09:45:04;;;;;;;2.15;0.88;;;;;;;28.64;28.10;99443.97;1744267;82;21013;-75
2022/06/04 09:47:40;;;;;;;2.45;0.93;;;;;;;28.92;28.16;99440.11;1744390;82;20930;-75
2022/06/04 09:50:30;;;;;;;2.40;1.00;;;;;;;29.25;27.94;99441.38;1744218;82;21121;-76
2022/06/04 09:53:04;;;;;;;0.98;0.98;;;;;;;29.27;27.17;99441.92;1744218;82;20931;-75
2022/06/04 09:55:32;;;;;;;4.80;1.40;;;;;;;29.44;27.27;99436.48;1744355;82;20995;-75
2022/06/04 09:58:07;;;;;;;0.82;0.75;;;;;;;29.48;27.45;99436.99;1744257;82;21525;-75
2022/06/04 10:00:36;;;;;;;1.65;1.07;;;;;;;29.47;28.02;99439.45;1744239;82;20998;-75
2022/06/04 10:03:16;;;;;;;1.77;0.98;;;;;;;29.61;27.63;99430.78;1734330;82;21744;-76
2022/06/04 10:06:00;;;;;;;1.17;0.95;;;;;;;29.71;27.31;99432.00;1744114;82;20883;-75
2022/06/04 10:08:27;;;;;;;0.93;0.80;;;;;;;29.68;27.62;99437.25;1744342;82;21441;-77
2022/06/04 10:11:00;;;;;;;1.47;0.80;;;;;;;29.73;28.05;99431.14;1744199;82;21569;-77
2022/06/04 10:13:43;;;;;;;1.62;0.75;;;;;;;29.57;27.83;99437.95;1751254;79;21085;-77
2022/06/04 10:16:15;;;;;;;1.40;0.98;;;;;;;29.28;27.98;99429.02;1787065;80;21234;-77
2022/06/04 10:18:55;;;;;;;1.27;0.90;;;;;;;29.11;28.17;99421.81;1787030;80;21422;-77
2022/06/04 10:21:25;;;;;;;1.42;1.10;;;;;;;29.09;28.47;99421.30;1787099;80;21516;-74
2022/06/04 10:23:57;;;;;;;1.20;1.10;;;;;;;28.95;28.78;99426.66;1787057;80;20955;-76
2022/06/04 10:27:06;;;;;;;1.17;1.00;;;;;;;28.72;29.24;99417.34;1787710;80;21492;-74
2022/06/04 10:30:05;;;;;;;1.02;0.93;;;;;;;28.55;29.54;99416.13;1786790;80;21357;-75
2022/06/04 10:32:53;;;;;;;1.55;1.02;;;;;;;28.33;30.11;99419.89;1767438;80;21022;-75
2022/06/04 10:35:40;;;;;;;2.10;1.20;;;;;;;28.31;29.98;99409.25;1786978;79;20895;-75
2022/06/04 10:38:21;;;;;;;1.57;0.90;;;;;;;28.27;30.15;99408.17;1779951;80;21061;-75
2022/06/04 10:41:09;;;;;;;2.90;1.22;;;;;;;28.23;30.89;99406.30;1787086;80;20915;-74
2022/06/04 10:43:51;;;;;;;5.37;1.50;;;;;;;28.26;30.84;99398.90;1787112;79;21241;-75
2022/06/04 10:47:09;;;;;;;1.30;1.15;;;;;;;28.17;30.69;99395.95;1787087;80;21553;-75
2022/06/04 10:50:19;;;;;;;0.80;0.80;;;;;;;28.08;30.94;99407.23;1787229;79;20915;-75
2022/06/04 10:52:56;;;;;;;3.35;1.40;;;;;;;28.01;29.72;99397.15;1787146;79;21500;-76
2022/06/04 10:55:29;;;;;;;1.35;1.25;;;;;;;27.69;30.40;99410.53;1787130;80;20978;-76
2022/06/04 10:58:11;;;;;;;1.20;1.10;;;;;;;27.58;30.08;99403.73;1781441;80;21536;-77
2022/06/04 11:00:52;;;;;;;1.40;1.02;;;;;;;27.53;29.80;99402.97;1787052;80;20934;-77
2022/06/04 11:03:27;;;;;;;1.62;1.10;;;;;;;27.60;29.65;99403.47;1787138;80;20927;-76
2022/06/04 11:06:05;;;;;;;2.02;1.10;;;;;;;27.65;29.68;99410.27;1778255;80;20960;-75
2022/06/04 11:08:52;;;;;;;1.70;0.90;;;;;;;27.68;29.90;99398.77;1786801;80;20836;-73
2022/06/04 11:11:33;;;;;;;2.33;1.00;;;;;;;27.65;30.14;99391.14;1780438;80;21549;-75
2022/06/04 11:14:05;;;;;;;1.10;1.00;;;;;;;27.56;30.37;99391.45;1757442;80;20883;-75
2022/06/04 11:16:53;;;;;;;1.98;0.90;;;;;;;27.53;30.59;99391.47;1777710;80;21006;-77
2022/06/04 11:19:37;;;;;;;2.72;0.98;;;;;;;27.56;30.31;99384.63;1782002;80;21029;-75
2022/06/04 11:22:17;;;;;;;1.30;0.88;;;;;;;27.53;30.51;99392.84;1787267;79;21387;-76
2022/06/04 11:24:58;;;;;;;1.25;1.00;;;;;;;27.42;29.59;99387.73;1777706;80;21637;-76
2022/06/04 11:27:36;;;;;;;1.32;0.80;;;;;;;27.35;30.06;99388.58;1757066;80;20832;-75
2022/06/04 11:30:06;;;;;;;1.15;0.80;;;;;;;27.28;29.30;99376.58;1757466;80;20981;-74
2022/06/04 11:32:51;;;;;;;1.65;0.88;;;;;;;27.22;30.49;99379.05;1757357;80;21472;-74
2022/06/04 11:35:35;;;;;;;1.15;1.00;;;;;;;27.31;30.83;99372.46;1756867;80;20950;-75
2022/06/04 11:38:50;;;;;;;1.20;0.82;;;;;;;27.38;31.71;99368.86;1779043;80;21145;-75
2022/06/04 11:41:39;;;;;;;1.15;1.00;;;;;;;27.53;31.28;99378.39;1786580;80;20911;-76
2022/06/04 11:44:34;;;;;;;0.90;0.90;;;;;;;27.55;31.14;99372.91;1785348;80;20888;-76
2022/06/04 11:47:32;;;;;;;0.80;0.80;;;;;;;27.55;30.14;99372.08;1787266;80;21453;-74
2022/06/04 11:50:13;;;;;;;1.67;1.10;;;;;;;27.47;30.28;99371.31;1787373;80;20972;-76
2022/06/04 11:52:54;;;;;;;1.05;1.00;;;;;;;27.50;30.58;99374.84;1777813;80;21156;-75
2022/06/04 11:55:43;;;;;;;3.52;0.90;;;;;;;27.37;30.86;99370.80;1780278;80;20970;-76
2022/06/04 11:58:34;;;;;;;0.90;0.90;;;;;;;27.25;31.28;99377.67;1787235;79;20911;-77
2022/06/04 12:01:04;;;;;;;0.80;0.80;;;;;;;27.14;31.08;99365.98;1778890;80;20995;-76
2022/06/04 12:03:54;;;;;;;2.50;1.50;;;;;;;27.08;31.17;99361.67;1787239;80;20978;-72
2022/06/04 12:06:41;;;;;;;1.12;1.07;;;;;;;26.99;31.43;99366.06;1787180;79;21202;-77
2022/06/04 12:09:17;;;;;;;1.77;0.90;;;;;;;26.98;31.43;99357.62;1784368;80;21015;-75
2022/06/04 12:12:04;;;;;;;1.42;1.20;;;;;;;27.01;31.77;99353.52;1787381;80;21405;-76
2022/06/04 12:15:01;;;;;;;0.90;0.90;;;;;;;27.06;31.49;99348.86;1787178;79;21389;-75
2022/06/04 12:17:41;;;;;;;4.30;0.90;;;;;;;27.05;31.73;99354.58;1787274;79;20923;-75